Terminal Aerodrome Forecast
Issued by NWS New Orleans/Baton Rouge, LA

Home | Current Version | Previous Version | Text Only | Print | Product List | Glossary On
Versions: 1 2 3 4 5 6 7 8 9 10 11 12 13 14 15 16 17 18 19 20 21 22 23 24 25 26 27 28
000
FTUS44 KLIX 241732
TAFNEW
TAF
KNEW 241732Z 2418/2518 21013G18KT P6SM BKN030
     FM250400 23008KT P6SM OVC015
     FM250700 29010KT P6SM BKN010
     FM250900 34017G24KT P6SM BKN020
     FM251100 34015G20KT P6SM SCT090=

USA.gov is the U.S. government's official web portal to all federal, state and local government web resources and services.